createdAt,value
2022-11-21T00:00:51.883Z,7.00
2022-11-21T00:03:18.922Z,6.80
2022-11-21T00:05:47.862Z,6.80
2022-11-21T00:08:16.766Z,7.00
2022-11-21T00:10:43.797Z,6.80
2022-11-21T00:13:19.624Z,6.70
2022-11-21T00:15:47.347Z,6.60
2022-11-21T00:18:14.744Z,6.70
2022-11-21T00:20:42.368Z,6.70
2022-11-21T00:23:09.864Z,6.60
2022-11-21T00:25:37.789Z,6.70
2022-11-21T00:28:05.757Z,6.70
2022-11-21T00:30:32.562Z,6.70
2022-11-21T00:32:59.731Z,6.80
2022-11-21T00:35:26.722Z,6.70
2022-11-21T00:37:53.512Z,6.50
2022-11-21T00:40:20.454Z,6.40
2022-11-21T00:42:47.241Z,6.40
2022-11-21T00:45:15.586Z,6.50
2022-11-21T00:47:44.057Z,6.50
2022-11-21T00:50:11.165Z,6.60
2022-11-21T00:52:37.922Z,6.50
2022-11-21T00:55:04.859Z,6.50
2022-11-21T00:57:31.615Z,6.60
2022-11-21T00:59:58.346Z,6.50
2022-11-21T01:02:25.083Z,6.40
2022-11-21T01:04:51.823Z,6.40
2022-11-21T01:07:18.547Z,6.50
2022-11-21T01:09:45.339Z,6.60
2022-11-21T01:12:12.154Z,6.60
2022-11-21T01:14:38.940Z,6.60
2022-11-21T01:17:05.676Z,6.40
2022-11-21T01:19:32.477Z,6.40
2022-11-21T01:21:59.274Z,6.40
2022-11-21T01:24:26.265Z,6.40
2022-11-21T01:26:54.315Z,6.30
2022-11-21T01:29:21.273Z,6.30
2022-11-21T01:31:48.230Z,6.30
2022-11-21T01:34:15.165Z,6.30
2022-11-21T01:36:42.129Z,6.40
2022-11-21T01:39:10.746Z,6.40
2022-11-21T01:41:40.586Z,6.30
2022-11-21T01:44:27.995Z,6.30
2022-11-21T01:46:55.032Z,6.20
2022-11-21T01:49:23.481Z,6.30
2022-11-21T01:51:53.176Z,6.30
2022-11-21T01:54:31.648Z,6.20
2022-11-21T01:57:08.335Z,6.30
2022-11-21T01:59:39.869Z,6.30
2022-11-21T02:02:09.887Z,6.20
2022-11-21T02:04:38.209Z,6.20
2022-11-21T02:07:07.043Z,6.30
2022-11-21T02:09:37.442Z,6.30
2022-11-21T02:12:25.159Z,6.20
2022-11-21T02:14:53.046Z,6.20
2022-11-21T02:17:19.855Z,6.30
2022-11-21T02:19:58.583Z,6.40
2022-11-21T02:22:49.872Z,6.40
2022-11-21T02:25:23.017Z,6.40
2022-11-21T02:27:52.673Z,6.40
2022-11-21T02:30:19.647Z,6.40
2022-11-21T02:32:49.698Z,6.50
2022-11-21T02:35:18.162Z,6.40
2022-11-21T02:37:58.008Z,6.50
2022-11-21T02:40:29.216Z,6.50
2022-11-21T02:42:55.909Z,6.50
2022-11-21T02:45:37.073Z,6.50
2022-11-21T02:48:04.554Z,6.60
2022-11-21T02:50:39.885Z,6.70
2022-11-21T02:53:08.792Z,6.70
2022-11-21T02:55:35.594Z,6.70
2022-11-21T02:58:05.231Z,6.80
2022-11-21T03:00:34.016Z,6.60
2022-11-21T03:03:00.991Z,6.60
2022-11-21T03:05:27.917Z,6.50
2022-11-21T03:07:54.700Z,6.30
2022-11-21T03:10:21.707Z,6.40
2022-11-21T03:12:48.662Z,6.40
2022-11-21T03:15:16.283Z,6.40
2022-11-21T03:17:43.459Z,6.20
2022-11-21T03:20:11.253Z,6.10
2022-11-21T03:22:37.977Z,6.00
2022-11-21T03:25:05.102Z,6.10
2022-11-21T03:27:31.881Z,6.10
2022-11-21T03:29:58.613Z,6.10
2022-11-21T03:32:25.330Z,6.10
2022-11-21T03:34:52.066Z,6.00
2022-11-21T03:37:18.861Z,6.00
2022-11-21T03:39:45.623Z,6.10
2022-11-21T03:42:12.433Z,6.10
2022-11-21T03:44:39.254Z,6.00
2022-11-21T03:47:06.055Z,6.00
2022-11-21T03:49:32.767Z,6.00
2022-11-21T03:51:59.689Z,6.10
2022-11-21T03:54:26.751Z,6.00
2022-11-21T03:56:53.866Z,6.00
2022-11-21T03:59:20.725Z,5.90
2022-11-21T04:01:47.423Z,6.00
2022-11-21T04:04:14.174Z,6.00
2022-11-21T04:06:40.967Z,5.90
2022-11-21T04:09:07.782Z,6.00
2022-11-21T04:11:34.507Z,5.90
2022-11-21T04:14:01.419Z,5.90
2022-11-21T04:16:28.147Z,6.00
2022-11-21T04:18:54.884Z,6.10
2022-11-21T04:21:21.656Z,6.00
2022-11-21T04:23:48.424Z,6.00
2022-11-21T04:26:15.208Z,6.00
2022-11-21T04:28:41.999Z,5.70
2022-11-21T04:31:11.128Z,5.70
2022-11-21T04:33:39.330Z,5.70
2022-11-21T04:36:08.284Z,5.80
2022-11-21T04:38:35.276Z,5.90
2022-11-21T04:41:02.028Z,6.00
2022-11-21T04:43:28.827Z,5.90
2022-11-21T04:45:55.621Z,5.90
2022-11-21T04:48:22.387Z,6.00
2022-11-21T04:50:49.136Z,6.00
2022-11-21T04:53:15.940Z,5.80
2022-11-21T04:55:42.717Z,5.90
2022-11-21T04:58:09.491Z,6.00
2022-11-21T05:00:36.344Z,6.00
2022-11-21T05:03:05.139Z,6.10
2022-11-21T05:05:32.430Z,6.10
2022-11-21T05:07:59.302Z,6.00
2022-11-21T05:10:26.015Z,5.90
2022-11-21T05:13:18.474Z,5.90
2022-11-21T05:15:45.595Z,5.90
2022-11-21T05:18:12.363Z,5.80
2022-11-21T05:20:39.557Z,5.70
2022-11-21T05:23:06.495Z,5.70
2022-11-21T05:25:33.427Z,5.70
2022-11-21T05:28:00.214Z,5.60
2022-11-21T05:30:27.186Z,5.80
2022-11-21T05:32:53.947Z,5.80
2022-11-21T05:35:20.758Z,5.90
2022-11-21T05:37:47.564Z,5.90
2022-11-21T05:40:14.375Z,5.80
2022-11-21T05:43:02.799Z,5.70
2022-11-21T05:45:29.530Z,5.60
2022-11-21T05:47:56.246Z,5.70
2022-11-21T05:50:23.001Z,5.70
2022-11-21T05:52:49.843Z,5.80
2022-11-21T05:55:16.697Z,5.90
2022-11-21T05:57:43.428Z,5.50
2022-11-21T06:00:10.789Z,5.30
2022-11-21T06:02:56.143Z,5.20
2022-11-21T06:05:22.888Z,5.40
2022-11-21T06:07:49.690Z,5.40
2022-11-21T06:10:17.922Z,5.40
2022-11-21T06:12:44.664Z,5.50
2022-11-21T06:15:11.523Z,5.80
2022-11-21T06:17:38.230Z,5.80
2022-11-21T06:20:05.520Z,5.80
2022-11-21T06:22:32.239Z,6.00
2022-11-21T06:24:59.013Z,6.10
2022-11-21T06:27:25.724Z,5.70
2022-11-21T06:29:52.483Z,5.50
2022-11-21T06:32:19.305Z,5.60
2022-11-21T06:34:46.019Z,5.90
2022-11-21T06:37:12.785Z,6.10
2022-11-21T06:39:39.509Z,5.90
2022-11-21T06:42:06.964Z,5.50
2022-11-21T06:44:33.674Z,5.20
2022-11-21T06:47:00.408Z,4.90
2022-11-21T06:49:27.188Z,4.80
2022-11-21T06:51:53.906Z,4.90
2022-11-21T06:54:20.685Z,4.70
2022-11-21T06:56:47.549Z,4.70
2022-11-21T06:59:14.282Z,4.70
2022-11-21T07:01:41.130Z,4.70
2022-11-21T07:04:07.908Z,4.80
2022-11-21T07:06:35.058Z,4.90
2022-11-21T07:11:48.543Z,5.10
2022-11-21T07:14:15.379Z,5.00
2022-11-21T07:16:42.127Z,4.90
2022-11-21T07:19:08.858Z,5.00
2022-11-21T07:21:35.607Z,5.00
2022-11-21T07:24:02.383Z,5.00
2022-11-21T07:26:29.090Z,5.10
2022-11-21T07:28:55.914Z,4.80
2022-11-21T07:31:23.525Z,4.80
2022-11-21T07:33:50.253Z,4.90
2022-11-21T07:36:16.986Z,5.00
2022-11-21T07:38:46.689Z,5.20
2022-11-21T07:41:13.469Z,5.10
2022-11-21T07:43:40.295Z,5.10
2022-11-21T07:46:07.091Z,5.00
2022-11-21T07:48:34.070Z,5.20
2022-11-21T07:51:04.316Z,5.20
2022-11-21T07:53:31.168Z,5.20
2022-11-21T07:55:59.788Z,5.30
2022-11-21T07:58:26.610Z,5.30
2022-11-21T08:00:54.532Z,5.30
2022-11-21T08:03:22.589Z,5.30
2022-11-21T08:05:49.803Z,5.30
2022-11-21T08:08:17.538Z,5.20
2022-11-21T08:10:46.093Z,5.00
2022-11-21T08:13:13.678Z,5.10
2022-11-21T08:15:40.828Z,5.20
2022-11-21T08:18:12.404Z,5.00
2022-11-21T08:20:39.749Z,5.20
2022-11-21T08:23:07.000Z,5.30
2022-11-21T08:25:43.508Z,5.30
2022-11-21T08:28:11.834Z,5.30
2022-11-21T08:30:40.541Z,5.50
2022-11-21T08:33:07.349Z,5.60
2022-11-21T08:35:40.022Z,5.40
2022-11-21T08:38:07.524Z,5.30
2022-11-21T08:40:35.215Z,5.50
2022-11-21T08:43:07.197Z,5.40
2022-11-21T08:45:35.411Z,5.50
2022-11-21T08:48:02.428Z,5.60
2022-11-21T08:50:29.399Z,5.60
2022-11-21T08:53:02.626Z,5.70
2022-11-21T08:55:30.219Z,5.60
2022-11-21T08:57:57.529Z,5.80
2022-11-21T09:00:24.450Z,5.80
2022-11-21T09:02:51.287Z,5.80
2022-11-21T09:05:18.107Z,5.90
2022-11-21T09:07:44.986Z,6.10
2022-11-21T09:10:12.759Z,6.10
2022-11-21T09:12:40.514Z,6.10
2022-11-21T09:15:26.721Z,6.20
2022-11-21T09:18:06.596Z,6.10
2022-11-21T09:20:38.385Z,6.00
2022-11-21T09:23:09.972Z,5.90
2022-11-21T09:25:37.028Z,6.10
2022-11-21T09:28:06.083Z,6.30
2022-11-21T09:30:34.145Z,6.20
2022-11-21T09:33:06.144Z,6.30
2022-11-21T09:35:33.458Z,6.30
2022-11-21T09:38:00.555Z,6.60
2022-11-21T09:40:29.535Z,6.70
2022-11-21T09:43:20.700Z,6.60
2022-11-21T09:45:51.781Z,6.50
2022-11-21T09:48:31.705Z,6.50
2022-11-21T09:51:07.195Z,6.50
2022-11-21T09:53:37.542Z,6.60
2022-11-21T09:56:15.998Z,6.60
2022-11-21T09:58:44.248Z,6.50
2022-11-21T10:01:16.104Z,6.50
2022-11-21T10:03:55.255Z,6.60
2022-11-21T10:06:26.615Z,6.70
2022-11-21T10:08:56.140Z,6.70
2022-11-21T10:12:11.890Z,7.00
2022-11-21T10:15:02.648Z,7.10
2022-11-21T10:18:04.747Z,6.90
2022-11-21T10:21:00.782Z,7.00
2022-11-21T10:23:33.282Z,6.70
2022-11-21T10:26:16.434Z,6.60
2022-11-21T10:28:54.664Z,6.60
2022-11-21T10:31:22.989Z,6.60
2022-11-21T10:33:53.208Z,6.60
2022-11-21T10:36:31.650Z,6.60
2022-11-21T10:39:03.541Z,6.80
2022-11-21T10:41:47.724Z,6.70
2022-11-21T10:44:44.532Z,6.90
2022-11-21T10:47:30.191Z,6.80
2022-11-21T10:50:09.522Z,6.80
2022-11-21T10:53:23.525Z,6.60
2022-11-21T10:56:07.081Z,6.50
2022-11-21T10:58:35.474Z,6.70
2022-11-21T11:01:02.261Z,6.80
2022-11-21T11:03:31.521Z,6.80
2022-11-21T11:05:58.570Z,6.80
2022-11-21T11:08:27.543Z,6.80
2022-11-21T11:11:07.997Z,6.80
2022-11-21T11:14:04.780Z,7.10
2022-11-21T11:16:41.240Z,7.00
2022-11-21T11:19:35.393Z,6.90
2022-11-21T11:22:02.384Z,6.80
2022-11-21T11:24:29.186Z,6.90
2022-11-21T11:27:00.191Z,6.90
2022-11-21T11:29:32.619Z,7.10
2022-11-21T11:31:59.483Z,7.20
2022-11-21T11:34:40.624Z,7.20
2022-11-21T11:37:10.391Z,7.20
2022-11-21T11:39:39.137Z,7.30
2022-11-21T11:42:47.157Z,7.40
2022-11-21T11:45:32.522Z,7.30
2022-11-21T11:48:01.141Z,7.40
2022-11-21T11:50:51.579Z,7.40
2022-11-21T11:53:33.280Z,7.40
2022-11-21T11:56:13.355Z,7.50
2022-11-21T11:59:02.869Z,7.50
2022-11-21T12:01:45.004Z,7.50
2022-11-21T12:04:18.056Z,7.60
2022-11-21T12:10:25.527Z,7.60
2022-11-21T12:13:09.784Z,7.60
2022-11-21T12:15:50.383Z,7.80
2022-11-21T12:18:20.112Z,7.80
2022-11-21T12:21:01.633Z,7.80
2022-11-21T12:23:48.747Z,7.80
2022-11-21T12:26:18.736Z,7.80
2022-11-21T12:28:59.939Z,7.80
2022-11-21T12:31:47.068Z,7.90
2022-11-21T12:34:31.720Z,7.90
2022-11-21T12:37:16.577Z,7.90
2022-11-21T12:39:57.711Z,8.00
2022-11-21T12:42:50.532Z,8.10
2022-11-21T12:45:24.519Z,8.10
2022-11-21T12:48:48.446Z,8.00
2022-11-21T12:51:48.854Z,8.20
2022-11-21T12:54:43.517Z,8.20
2022-11-21T12:57:20.693Z,8.30
2022-11-21T12:59:56.442Z,8.30
2022-11-21T13:02:34.665Z,8.40
2022-11-21T13:05:03.469Z,8.40
2022-11-21T13:07:31.528Z,8.40
2022-11-21T13:10:01.036Z,8.50
2022-11-21T13:12:40.704Z,8.50
2022-11-21T13:15:36.947Z,8.40
2022-11-21T13:18:37.330Z,8.50
2022-11-21T13:21:04.151Z,8.60
2022-11-21T13:23:39.602Z,8.40
2022-11-21T13:26:24.758Z,8.40
2022-11-21T13:29:07.072Z,8.40
2022-11-21T13:31:34.726Z,8.40
2022-11-21T13:34:02.687Z,8.40
2022-11-21T13:36:29.375Z,8.40
2022-11-21T13:38:59.172Z,8.40
2022-11-21T13:41:53.565Z,8.40
2022-11-21T13:44:32.346Z,8.40
2022-11-21T13:46:59.950Z,8.60
2022-11-21T13:50:09.939Z,8.60
2022-11-21T13:52:45.311Z,8.40
2022-11-21T13:55:12.043Z,8.50
2022-11-21T13:58:20.158Z,8.50
2022-11-21T14:00:56.583Z,8.60
2022-11-21T14:03:51.183Z,8.60
2022-11-21T14:06:34.848Z,8.40
2022-11-21T14:09:23.281Z,8.40
2022-11-21T14:11:53.402Z,8.50
2022-11-21T14:14:30.465Z,8.50
2022-11-21T14:17:09.448Z,8.40
2022-11-21T14:19:36.403Z,8.50
2022-11-21T14:22:03.148Z,8.50
2022-11-21T14:24:30.504Z,8.50
2022-11-21T14:26:58.097Z,8.40
2022-11-21T14:29:41.290Z,8.50
2022-11-21T14:32:17.146Z,8.40
2022-11-21T14:34:43.906Z,8.40
2022-11-21T14:37:13.542Z,8.40
2022-11-21T14:39:44.928Z,8.50
2022-11-21T14:42:15.486Z,8.50
2022-11-21T14:44:42.498Z,8.40
2022-11-21T14:47:25.854Z,8.40
2022-11-21T14:49:55.533Z,8.40
2022-11-21T14:52:29.464Z,8.40
2022-11-21T14:55:29.176Z,8.30
2022-11-21T14:57:55.013Z,8.40
2022-11-21T15:03:23.107Z,8.40
2022-11-21T15:06:04.668Z,8.50
2022-11-21T15:11:58.998Z,8.40
2022-11-21T15:14:34.898Z,8.40
2022-11-21T15:17:04.338Z,8.30
2022-11-21T15:19:32.815Z,8.40
2022-11-21T15:22:04.695Z,8.30
2022-11-21T15:24:43.173Z,8.40
2022-11-21T15:27:28.205Z,8.20
2022-11-21T15:30:09.931Z,8.20
2022-11-21T15:33:02.549Z,8.30
2022-11-21T15:35:38.655Z,8.30
2022-11-21T15:38:30.431Z,8.30
2022-11-21T15:41:22.990Z,8.20
2022-11-21T15:43:52.505Z,8.20
2022-11-21T15:46:20.785Z,8.30
2022-11-21T15:49:06.272Z,8.20
2022-11-21T15:54:34.894Z,8.20
2022-11-21T15:57:01.705Z,8.10
2022-11-21T15:59:28.884Z,8.20
2022-11-21T16:01:55.762Z,8.30
2022-11-21T16:04:25.551Z,8.40
2022-11-21T16:06:53.468Z,8.40
2022-11-21T16:09:20.476Z,8.40
2022-11-21T16:11:47.430Z,8.40
2022-11-21T16:14:15.851Z,8.40
2022-11-21T16:16:44.382Z,8.20
2022-11-21T16:19:12.430Z,8.00
2022-11-21T16:21:39.399Z,8.10
2022-11-21T16:24:06.608Z,8.20
2022-11-21T16:26:33.844Z,8.20
2022-11-21T16:29:01.555Z,8.10
2022-11-21T16:31:30.819Z,8.40
2022-11-21T16:33:58.712Z,8.30
2022-11-21T16:36:27.710Z,8.20
2022-11-21T16:38:55.185Z,8.10
2022-11-21T16:41:23.626Z,8.20
2022-11-21T16:43:52.539Z,8.20
2022-11-21T16:46:21.425Z,8.10
2022-11-21T16:48:48.893Z,7.90
2022-11-21T16:51:19.087Z,7.90
2022-11-21T16:53:48.494Z,8.00
2022-11-21T16:56:15.844Z,8.00
2022-11-21T16:58:43.350Z,8.00
2022-11-21T17:01:16.174Z,7.90
2022-11-21T17:03:44.597Z,7.70
2022-11-21T17:06:14.232Z,7.80
2022-11-21T17:08:41.036Z,7.90
2022-11-21T17:11:29.156Z,7.80
2022-11-21T17:14:01.520Z,7.80
2022-11-21T17:16:28.956Z,7.70
2022-11-21T17:19:01.086Z,7.80
2022-11-21T17:21:29.319Z,7.80
2022-11-21T17:23:56.345Z,8.00
2022-11-21T17:26:25.533Z,7.90
2022-11-21T17:29:00.052Z,7.70
2022-11-21T17:31:27.537Z,7.60
2022-11-21T17:33:56.613Z,7.60
2022-11-21T17:36:25.509Z,7.60
2022-11-21T17:38:52.882Z,7.60
2022-11-21T17:41:21.001Z,7.60
2022-11-21T17:43:49.176Z,7.60
2022-11-21T17:46:18.606Z,7.60
2022-11-21T17:48:53.017Z,7.60
2022-11-21T17:51:26.873Z,7.60
2022-11-21T17:53:54.138Z,7.60
2022-11-21T17:56:23.319Z,7.50
2022-11-21T17:58:51.107Z,7.50
2022-11-21T18:01:22.233Z,7.50
2022-11-21T18:03:57.802Z,7.50
2022-11-21T18:06:26.699Z,7.40
2022-11-21T18:08:54.946Z,7.40
2022-11-21T18:11:22.497Z,7.40
2022-11-21T18:13:50.245Z,7.50
2022-11-21T18:16:19.679Z,7.50
2022-11-21T18:18:47.079Z,7.40
2022-11-21T18:21:22.421Z,7.50
2022-11-21T18:23:50.302Z,7.50
2022-11-21T18:26:23.249Z,7.50
2022-11-21T18:29:07.283Z,7.50
2022-11-21T18:31:39.532Z,7.50
2022-11-21T18:34:06.829Z,7.40
2022-11-21T18:36:33.602Z,7.40
2022-11-21T18:39:07.174Z,7.60
2022-11-21T18:41:38.952Z,7.60
2022-11-21T18:44:06.896Z,7.50
2022-11-21T18:46:36.304Z,7.40
2022-11-21T18:49:06.427Z,7.40
2022-11-21T18:51:35.310Z,7.40
2022-11-21T18:54:08.069Z,7.50
2022-11-21T18:56:36.653Z,7.60
2022-11-21T18:59:05.612Z,7.70
2022-11-21T19:01:33.525Z,7.60
2022-11-21T19:04:00.444Z,7.50
2022-11-21T19:06:28.715Z,7.50
2022-11-21T19:08:57.413Z,7.40
2022-11-21T19:11:26.532Z,7.40
2022-11-21T19:13:54.957Z,7.30
2022-11-21T19:16:24.996Z,7.30
2022-11-21T19:21:41.452Z,7.40
2022-11-21T19:24:13.430Z,7.50
2022-11-21T19:26:41.302Z,7.40
2022-11-21T19:29:08.365Z,7.40
2022-11-21T19:31:40.707Z,7.40
2022-11-21T19:34:11.710Z,7.40
2022-11-21T19:36:39.441Z,7.20
2022-11-21T19:39:06.346Z,7.30
2022-11-21T19:41:33.192Z,7.40
2022-11-21T19:44:01.004Z,7.40
2022-11-21T19:46:40.933Z,7.40
2022-11-21T19:49:08.559Z,7.40
2022-11-21T19:51:41.082Z,7.40
2022-11-21T19:54:09.757Z,7.30
2022-11-21T19:56:37.170Z,7.20
2022-11-21T19:59:04.715Z,7.20
2022-11-21T20:01:32.975Z,7.20
2022-11-21T20:04:02.033Z,7.30
2022-11-21T20:06:37.236Z,7.30
2022-11-21T20:09:10.322Z,7.30
2022-11-21T20:11:39.899Z,7.40
2022-11-21T20:14:06.955Z,7.30
2022-11-21T20:16:36.627Z,7.20
2022-11-21T20:19:07.562Z,7.20
2022-11-21T20:21:34.759Z,7.20
2022-11-21T20:24:01.501Z,7.30
2022-11-21T20:26:28.576Z,7.30
2022-11-21T20:28:55.938Z,7.20
2022-11-21T20:31:28.448Z,7.20
2022-11-21T20:33:58.339Z,7.20
2022-11-21T20:36:26.997Z,7.20
2022-11-21T20:38:57.752Z,7.20
2022-11-21T20:41:26.840Z,7.10
2022-11-21T20:46:48.525Z,7.10
2022-11-21T20:49:15.661Z,7.10
2022-11-21T20:54:30.556Z,7.30
2022-11-21T20:56:57.519Z,7.30
2022-11-21T20:59:25.880Z,7.30
2022-11-21T21:01:52.737Z,7.50
2022-11-21T21:04:19.679Z,7.50
2022-11-21T21:06:46.439Z,7.30
2022-11-21T21:09:13.159Z,7.20
2022-11-21T21:11:55.154Z,7.40
2022-11-21T21:14:22.453Z,7.30
2022-11-21T21:16:50.087Z,7.30
2022-11-21T21:19:17.646Z,7.30
2022-11-21T21:21:45.008Z,7.50
2022-11-21T21:24:12.837Z,7.60
2022-11-21T21:26:49.075Z,7.50
2022-11-21T21:29:18.830Z,7.30
2022-11-21T21:31:51.027Z,7.20
2022-11-21T21:34:19.624Z,7.40
2022-11-21T21:36:46.945Z,7.40
2022-11-21T21:39:14.146Z,7.40
2022-11-21T21:41:44.853Z,7.40
2022-11-21T21:44:12.125Z,7.40
2022-11-21T21:46:38.894Z,7.60
2022-11-21T21:49:05.660Z,7.50
2022-11-21T21:51:32.558Z,7.60
2022-11-21T21:54:00.293Z,7.60
2022-11-21T21:56:28.509Z,7.40
2022-11-21T21:58:57.124Z,7.40
2022-11-21T22:01:31.489Z,7.50
2022-11-21T22:04:01.033Z,7.40
2022-11-21T22:06:28.347Z,7.40
2022-11-21T22:08:55.605Z,7.30
2022-11-21T22:11:24.778Z,7.30
2022-11-21T22:13:54.111Z,7.50
2022-11-21T22:16:21.050Z,7.50
2022-11-21T22:18:48.214Z,7.40
2022-11-21T22:21:34.966Z,7.30
2022-11-21T22:24:27.602Z,7.40
2022-11-21T22:26:55.197Z,7.40
2022-11-21T22:29:22.094Z,7.30
2022-11-21T22:31:48.863Z,7.20
2022-11-21T22:34:15.708Z,7.20
2022-11-21T22:36:43.385Z,7.20
2022-11-21T22:39:10.171Z,7.00
2022-11-21T22:41:36.888Z,7.00
2022-11-21T22:44:03.952Z,6.90
2022-11-21T22:46:31.298Z,7.00
2022-11-21T22:48:59.040Z,7.10
2022-11-21T22:51:29.414Z,7.00
2022-11-21T22:53:57.076Z,7.10
2022-11-21T22:56:24.571Z,7.10
2022-11-21T22:58:52.037Z,7.00
2022-11-21T23:01:24.071Z,6.90
2022-11-21T23:03:51.247Z,7.00
2022-11-21T23:06:20.482Z,7.10
2022-11-21T23:08:47.372Z,7.10
2022-11-21T23:11:17.557Z,7.00
2022-11-21T23:13:46.387Z,7.00
2022-11-21T23:16:13.830Z,6.90
2022-11-21T23:18:40.919Z,7.10
2022-11-21T23:21:08.963Z,7.00
2022-11-21T23:23:36.036Z,7.00
2022-11-21T23:26:03.330Z,6.90
2022-11-21T23:28:30.633Z,6.80
2022-11-21T23:30:57.515Z,6.80
2022-11-21T23:33:24.412Z,6.90
2022-11-21T23:35:51.459Z,7.10
2022-11-21T23:38:19.107Z,7.10
2022-11-21T23:40:47.261Z,7.10
2022-11-21T23:43:18.165Z,7.00
2022-11-21T23:45:49.396Z,6.80
2022-11-21T23:48:16.425Z,6.80
2022-11-21T23:50:43.158Z,6.90
2022-11-21T23:53:09.906Z,6.80
2022-11-21T23:55:36.730Z,6.80
2022-11-21T23:58:03.535Z,6.80
